Terminal Aerodrome Forecast
Issued by NWS

Home | Current Version | Previous Version | Text Only | Print | Product List | Glossary On
Versions: 1 2 3 4 5 6 7 8 9 10 11 12 13 14 15 16 17 18
000
FTUS45 KABQ 311131
TAFTCC
TAF
KTCC 311131Z 3112/0112 VRB03KT P6SM FEW025 BKN045
      TEMPO 3112/3116 3SM -SHRA BR OVC018
     FM311600 04006KT P6SM VCSH FEW035 BKN060
     FM312100 14008KT P6SM VCTS SCT040CB BKN070
     FM010000 15006KT P6SM VCSH SCT040 BKN070
     FM010600 VRB05KT P6SM FEW030 SCT060=

USA.gov is the U.S. government's official web portal to all federal, state and local government web resources and services.